バンギ の空港の天気 - METARとTAF

バンギ・ムポコ国際空港 ( FEFF / BGF ) - 中央アフリカ バンギ
飛行場実況気象(Metar)
観測時間-
風向・風速- -
視程-
天気現象-
-
気温-
湿度-
気圧-
METAR-
過去の天気等 Google飛行場航空写真 Wunderground天気予報

過去48時間のMETAR

飛行場予報(TAF)
発表時間: 4/25 06:00 WAT (4/25 05:00 UTC)
予報対象時間: 25日7時 WAT ~ 26日13時 WAT
風向・風速不定 1m/s
視程10km以上
なし
25日8時 WAT ~ 25日10時 WAT に徐々に
全天の8割程度の雲 雲底高度 400m
25日12時 WAT ~ 25日14時 WAT に徐々に
全天の8割程度の雲 雲底高度 490m
少しの積乱雲 雲底高度 1010m
25日14時 WAT ~ 25日20時 WAT に一時的に
風向・風速不定 8m/s
視程4000m
天気現象雷雨
25日21時 WAT ~ 25日23時 WAT に徐々に
視程10km以上
なし
TAF FEFF 250500Z 2506/2612 VRB02KT CAVOK
BECMG 2507/2509 BKN013
BECMG 2511/2513 BKN016 FEW033CB
TEMPO 2513/2519 VRB15KT 4000 TSRA
BECMG 2520/2522 CAVOK